sensor_id;sensor_type;location;lat;lon;timestamp;temperature;humidity
7290;DHT22;63176;52.678;13.250;2023-05-27T00:01:59;9.60;1.00
7290;DHT22;63176;52.678;13.250;2023-05-27T00:04:24;9.50;1.00
7290;DHT22;63176;52.678;13.250;2023-05-27T00:06:50;9.50;1.00
7290;DHT22;63176;52.678;13.250;2023-05-27T00:09:16;9.50;1.00
7290;DHT22;63176;52.678;13.250;2023-05-27T00:11:41;9.50;1.00
7290;DHT22;63176;52.678;13.250;2023-05-27T00:14:07;9.40;1.00
7290;DHT22;63176;52.678;13.250;2023-05-27T00:16:33;9.30;1.00
7290;DHT22;63176;52.678;13.250;2023-05-27T00:19:02;9.30;1.00
7290;DHT22;63176;52.678;13.250;2023-05-27T00:21:28;9.30;1.00
7290;DHT22;63176;52.678;13.250;2023-05-27T00:23:53;9.30;1.00
7290;DHT22;63176;52.678;13.250;2023-05-27T00:26:19;9.30;1.00
7290;DHT22;63176;52.678;13.250;2023-05-27T00:28:45;9.30;1.00
7290;DHT22;63176;52.678;13.250;2023-05-27T00:31:11;9.20;1.00
7290;DHT22;63176;52.678;13.250;2023-05-27T00:33:36;9.20;1.00
7290;DHT22;63176;52.678;13.250;2023-05-27T00:36:03;9.10;1.00
7290;DHT22;63176;52.678;13.250;2023-05-27T00:38:29;9.10;1.00
7290;DHT22;63176;52.678;13.250;2023-05-27T00:40:55;9.10;1.00
7290;DHT22;63176;52.678;13.250;2023-05-27T00:43:21;9.00;1.00
7290;DHT22;63176;52.678;13.250;2023-05-27T00:45:47;9.00;1.00
7290;DHT22;63176;52.678;13.250;2023-05-27T00:48:13;9.00;1.00
7290;DHT22;63176;52.678;13.250;2023-05-27T00:50:38;8.90;1.00
7290;DHT22;63176;52.678;13.250;2023-05-27T00:53:04;8.80;1.00
7290;DHT22;63176;52.678;13.250;2023-05-27T00:55:30;8.80;1.00
7290;DHT22;63176;52.678;13.250;2023-05-27T00:57:55;8.80;1.00
7290;DHT22;63176;52.678;13.250;2023-05-27T01:00:22;8.80;1.00
7290;DHT22;63176;52.678;13.250;2023-05-27T01:02:48;8.70;1.00
7290;DHT22;63176;52.678;13.250;2023-05-27T01:05:16;8.80;1.00
7290;DHT22;63176;52.678;13.250;2023-05-27T01:10:53;8.70;1.00
7290;DHT22;63176;52.678;13.250;2023-05-27T01:15:52;8.60;1.00
7290;DHT22;63176;52.678;13.250;2023-05-27T01:18:19;8.60;1.00
7290;DHT22;63176;52.678;13.250;2023-05-27T01:20:48;8.50;1.00
7290;DHT22;63176;52.678;13.250;2023-05-27T01:23:17;8.50;1.00
7290;DHT22;63176;52.678;13.250;2023-05-27T01:25:43;8.50;1.00
7290;DHT22;63176;52.678;13.250;2023-05-27T01:28:08;8.60;1.00
7290;DHT22;63176;52.678;13.250;2023-05-27T01:30:34;8.60;1.00
7290;DHT22;63176;52.678;13.250;2023-05-27T01:33:07;8.60;1.00
7290;DHT22;63176;52.678;13.250;2023-05-27T01:35:42;8.50;1.00
7290;DHT22;63176;52.678;13.250;2023-05-27T01:38:10;8.60;1.00
7290;DHT22;63176;52.678;13.250;2023-05-27T01:40:39;8.40;1.00
7290;DHT22;63176;52.678;13.250;2023-05-27T01:43:06;8.40;1.00
7290;DHT22;63176;52.678;13.250;2023-05-27T01:45:33;8.40;1.00
7290;DHT22;63176;52.678;13.250;2023-05-27T01:48:00;8.40;1.00
7290;DHT22;63176;52.678;13.250;2023-05-27T01:50:26;8.30;1.00
7290;DHT22;63176;52.678;13.250;2023-05-27T01:52:51;8.30;1.00
7290;DHT22;63176;52.678;13.250;2023-05-27T01:55:17;8.20;1.00
7290;DHT22;63176;52.678;13.250;2023-05-27T01:57:43;8.20;1.00
7290;DHT22;63176;52.678;13.250;2023-05-27T02:00:09;8.10;1.00
7290;DHT22;63176;52.678;13.250;2023-05-27T02:02:35;8.10;1.00
7290;DHT22;63176;52.678;13.250;2023-05-27T02:05:02;8.00;1.00
7290;DHT22;63176;52.678;13.250;2023-05-27T02:07:27;8.00;1.00
7290;DHT22;63176;52.678;13.250;2023-05-27T02:09:53;7.90;1.00
7290;DHT22;63176;52.678;13.250;2023-05-27T02:12:19;8.00;1.00
7290;DHT22;63176;52.678;13.250;2023-05-27T02:14:45;8.00;1.00
7290;DHT22;63176;52.678;13.250;2023-05-27T02:17:11;8.00;1.00
7290;DHT22;63176;52.678;13.250;2023-05-27T02:19:40;8.00;1.00
7290;DHT22;63176;52.678;13.250;2023-05-27T02:22:06;7.90;1.00
7290;DHT22;63176;52.678;13.250;2023-05-27T02:24:32;8.00;1.00
7290;DHT22;63176;52.678;13.250;2023-05-27T02:26:58;7.90;1.00
7290;DHT22;63176;52.678;13.250;2023-05-27T02:29:24;7.90;1.00
7290;DHT22;63176;52.678;13.250;2023-05-27T02:31:50;7.90;1.00
7290;DHT22;63176;52.678;13.250;2023-05-27T02:34:15;7.90;1.00
7290;DHT22;63176;52.678;13.250;2023-05-27T02:36:41;7.80;1.00
7290;DHT22;63176;52.678;13.250;2023-05-27T02:39:08;7.80;1.00
7290;DHT22;63176;52.678;13.250;2023-05-27T02:41:34;7.80;1.00
7290;DHT22;63176;52.678;13.250;2023-05-27T02:44:00;7.80;1.00
7290;DHT22;63176;52.678;13.250;2023-05-27T02:46:25;7.80;1.00
7290;DHT22;63176;52.678;13.250;2023-05-27T02:48:51;7.80;1.00
7290;DHT22;63176;52.678;13.250;2023-05-27T02:51:16;7.80;1.00
7290;DHT22;63176;52.678;13.250;2023-05-27T02:53:42;7.70;1.00
7290;DHT22;63176;52.678;13.250;2023-05-27T02:56:08;7.60;1.00
7290;DHT22;63176;52.678;13.250;2023-05-27T02:58:33;7.60;1.00
7290;DHT22;63176;52.678;13.250;2023-05-27T03:00:59;7.70;1.00
7290;DHT22;63176;52.678;13.250;2023-05-27T03:03:25;7.60;1.00
7290;DHT22;63176;52.678;13.250;2023-05-27T03:05:50;7.60;1.00
7290;DHT22;63176;52.678;13.250;2023-05-27T03:08:16;7.60;1.00
7290;DHT22;63176;52.678;13.250;2023-05-27T03:10:42;7.60;1.00
7290;DHT22;63176;52.678;13.250;2023-05-27T03:13:07;7.50;1.00
7290;DHT22;63176;52.678;13.250;2023-05-27T03:15:33;7.50;1.00
7290;DHT22;63176;52.678;13.250;2023-05-27T03:18:00;7.60;1.00
7290;DHT22;63176;52.678;13.250;2023-05-27T03:20:27;7.60;1.00
7290;DHT22;63176;52.678;13.250;2023-05-27T03:22:53;7.60;1.00
7290;DHT22;63176;52.678;13.250;2023-05-27T03:25:18;7.50;1.00
7290;DHT22;63176;52.678;13.250;2023-05-27T03:27:44;7.60;1.00
7290;DHT22;63176;52.678;13.250;2023-05-27T03:30:10;7.70;1.00
7290;DHT22;63176;52.678;13.250;2023-05-27T03:32:36;7.60;1.00
7290;DHT22;63176;52.678;13.250;2023-05-27T03:35:02;7.60;1.00
7290;DHT22;63176;52.678;13.250;2023-05-27T03:37:28;7.60;1.00
7290;DHT22;63176;52.678;13.250;2023-05-27T03:39:53;7.50;1.00
7290;DHT22;63176;52.678;13.250;2023-05-27T03:42:19;7.50;1.00
7290;DHT22;63176;52.678;13.250;2023-05-27T03:44:45;7.60;1.00
7290;DHT22;63176;52.678;13.250;2023-05-27T03:47:10;7.60;1.00
7290;DHT22;63176;52.678;13.250;2023-05-27T03:49:36;7.70;1.00
7290;DHT22;63176;52.678;13.250;2023-05-27T03:52:02;7.80;1.00
7290;DHT22;63176;52.678;13.250;2023-05-27T03:54:28;7.70;1.00
7290;DHT22;63176;52.678;13.250;2023-05-27T03:56:54;7.70;1.00
7290;DHT22;63176;52.678;13.250;2023-05-27T03:59:20;7.70;1.00
7290;DHT22;63176;52.678;13.250;2023-05-27T04:01:46;7.90;1.00
7290;DHT22;63176;52.678;13.250;2023-05-27T04:04:13;7.90;1.00
7290;DHT22;63176;52.678;13.250;2023-05-27T04:06:38;8.00;1.00
7290;DHT22;63176;52.678;13.250;2023-05-27T04:09:04;8.00;1.00
7290;DHT22;63176;52.678;13.250;2023-05-27T04:11:30;8.10;1.00
7290;DHT22;63176;52.678;13.250;2023-05-27T04:13:56;8.10;1.00
7290;DHT22;63176;52.678;13.250;2023-05-27T04:16:22;8.20;1.00
7290;DHT22;63176;52.678;13.250;2023-05-27T04:18:48;8.20;1.00
7290;DHT22;63176;52.678;13.250;2023-05-27T04:21:16;8.40;1.00
7290;DHT22;63176;52.678;13.250;2023-05-27T04:23:42;8.50;1.00
7290;DHT22;63176;52.678;13.250;2023-05-27T04:26:07;8.60;1.00
7290;DHT22;63176;52.678;13.250;2023-05-27T04:28:33;8.60;1.00
7290;DHT22;63176;52.678;13.250;2023-05-27T04:31:04;8.70;1.00
7290;DHT22;63176;52.678;13.250;2023-05-27T04:33:30;8.70;1.00
7290;DHT22;63176;52.678;13.250;2023-05-27T04:35:56;8.80;1.00
7290;DHT22;63176;52.678;13.250;2023-05-27T04:38:22;8.90;1.00
7290;DHT22;63176;52.678;13.250;2023-05-27T04:40:51;9.00;1.00
7290;DHT22;63176;52.678;13.250;2023-05-27T04:43:21;9.10;1.00
7290;DHT22;63176;52.678;13.250;2023-05-27T04:45:47;9.30;1.00
7290;DHT22;63176;52.678;13.250;2023-05-27T04:48:13;9.40;1.00
7290;DHT22;63176;52.678;13.250;2023-05-27T04:50:39;9.50;1.00
7290;DHT22;63176;52.678;13.250;2023-05-27T04:53:06;9.70;1.00
7290;DHT22;63176;52.678;13.250;2023-05-27T04:55:32;9.70;1.00
7290;DHT22;63176;52.678;13.250;2023-05-27T04:57:58;9.80;1.00
7290;DHT22;63176;52.678;13.250;2023-05-27T05:00:24;10.00;1.00
7290;DHT22;63176;52.678;13.250;2023-05-27T05:03:20;10.10;1.00
7290;DHT22;63176;52.678;13.250;2023-05-27T05:05:52;10.20;1.00
7290;DHT22;63176;52.678;13.250;2023-05-27T05:08:19;10.40;1.00
7290;DHT22;63176;52.678;13.250;2023-05-27T05:10:48;10.50;1.00
7290;DHT22;63176;52.678;13.250;2023-05-27T05:13:14;10.70;1.00
7290;DHT22;63176;52.678;13.250;2023-05-27T05:15:41;10.80;1.00
7290;DHT22;63176;52.678;13.250;2023-05-27T05:18:09;10.90;1.00
7290;DHT22;63176;52.678;13.250;2023-05-27T05:20:36;11.10;1.00
7290;DHT22;63176;52.678;13.250;2023-05-27T05:23:01;11.30;1.00
7290;DHT22;63176;52.678;13.250;2023-05-27T05:25:27;11.30;1.30
7290;DHT22;63176;52.678;13.250;2023-05-27T05:27:53;11.50;2.40
7290;DHT22;63176;52.678;13.250;2023-05-27T05:30:19;11.60;3.00
7290;DHT22;63176;52.678;13.250;2023-05-27T05:32:45;11.70;3.00
7290;DHT22;63176;52.678;13.250;2023-05-27T05:35:10;11.80;4.10
7290;DHT22;63176;52.678;13.250;2023-05-27T05:37:36;12.00;5.50
7290;DHT22;63176;52.678;13.250;2023-05-27T05:40:02;12.10;5.60
7290;DHT22;63176;52.678;13.250;2023-05-27T05:42:27;12.30;6.10
7290;DHT22;63176;52.678;13.250;2023-05-27T05:44:53;12.30;6.00
7290;DHT22;63176;52.678;13.250;2023-05-27T05:47:19;12.40;6.40
7290;DHT22;63176;52.678;13.250;2023-05-27T05:49:44;12.50;7.20
7290;DHT22;63176;52.678;13.250;2023-05-27T05:52:10;12.60;7.70
7290;DHT22;63176;52.678;13.250;2023-05-27T05:54:36;12.70;8.40
7290;DHT22;63176;52.678;13.250;2023-05-27T05:57:01;12.80;9.20
7290;DHT22;63176;52.678;13.250;2023-05-27T05:59:28;12.90;8.20
7290;DHT22;63176;52.678;13.250;2023-05-27T06:01:53;13.10;8.20
7290;DHT22;63176;52.678;13.250;2023-05-27T06:04:19;13.20;9.00
7290;DHT22;63176;52.678;13.250;2023-05-27T06:06:45;13.30;8.70
7290;DHT22;63176;52.678;13.250;2023-05-27T06:09:11;13.40;8.00
7290;DHT22;63176;52.678;13.250;2023-05-27T06:11:37;13.50;7.50
7290;DHT22;63176;52.678;13.250;2023-05-27T06:14:03;13.60;8.00
7290;DHT22;63176;52.678;13.250;2023-05-27T06:16:28;13.60;8.90
7290;DHT22;63176;52.678;13.250;2023-05-27T06:18:54;13.80;7.50
7290;DHT22;63176;52.678;13.250;2023-05-27T06:21:20;13.80;6.80
7290;DHT22;63176;52.678;13.250;2023-05-27T06:23:46;13.90;4.90
7290;DHT22;63176;52.678;13.250;2023-05-27T06:26:11;14.00;4.90
7290;DHT22;63176;52.678;13.250;2023-05-27T06:28:37;14.10;2.70
7290;DHT22;63176;52.678;13.250;2023-05-27T06:31:03;14.20;4.20
7290;DHT22;63176;52.678;13.250;2023-05-27T06:33:28;14.30;4.20
7290;DHT22;63176;52.678;13.250;2023-05-27T06:35:54;14.40;1.00
7290;DHT22;63176;52.678;13.250;2023-05-27T06:38:19;14.50;1.00
7290;DHT22;63176;52.678;13.250;2023-05-27T06:40:45;14.60;1.00
7290;DHT22;63176;52.678;13.250;2023-05-27T06:43:11;14.70;1.00
7290;DHT22;63176;52.678;13.250;2023-05-27T06:45:37;14.80;1.00
7290;DHT22;63176;52.678;13.250;2023-05-27T06:48:02;14.90;1.00
7290;DHT22;63176;52.678;13.250;2023-05-27T06:50:28;15.00;1.00
7290;DHT22;63176;52.678;13.250;2023-05-27T06:52:54;15.10;1.00
7290;DHT22;63176;52.678;13.250;2023-05-27T06:55:19;15.10;1.00
7290;DHT22;63176;52.678;13.250;2023-05-27T06:57:45;15.20;1.00
7290;DHT22;63176;52.678;13.250;2023-05-27T07:00:11;15.20;1.00
7290;DHT22;63176;52.678;13.250;2023-05-27T07:02:37;15.30;1.00
7290;DHT22;63176;52.678;13.250;2023-05-27T07:05:02;15.30;1.00
7290;DHT22;63176;52.678;13.250;2023-05-27T07:07:28;15.30;1.00
7290;DHT22;63176;52.678;13.250;2023-05-27T07:09:54;15.40;1.00
7290;DHT22;63176;52.678;13.250;2023-05-27T07:12:20;15.40;1.00
7290;DHT22;63176;52.678;13.250;2023-05-27T07:14:45;15.60;1.00
7290;DHT22;63176;52.678;13.250;2023-05-27T07:17:11;15.60;1.00
7290;DHT22;63176;52.678;13.250;2023-05-27T07:19:37;15.60;1.00
7290;DHT22;63176;52.678;13.250;2023-05-27T07:22:03;15.70;1.00
7290;DHT22;63176;52.678;13.250;2023-05-27T07:24:29;15.70;1.00
7290;DHT22;63176;52.678;13.250;2023-05-27T07:26:54;15.70;1.00
7290;DHT22;63176;52.678;13.250;2023-05-27T07:29:20;15.70;1.00
7290;DHT22;63176;52.678;13.250;2023-05-27T07:31:49;15.80;1.00
7290;DHT22;63176;52.678;13.250;2023-05-27T07:34:14;15.80;1.00
7290;DHT22;63176;52.678;13.250;2023-05-27T07:36:40;15.90;1.00
7290;DHT22;63176;52.678;13.250;2023-05-27T07:39:06;15.90;1.00
7290;DHT22;63176;52.678;13.250;2023-05-27T07:41:31;16.00;1.00
7290;DHT22;63176;52.678;13.250;2023-05-27T07:43:58;16.00;1.00
7290;DHT22;63176;52.678;13.250;2023-05-27T07:46:24;16.10;1.00
7290;DHT22;63176;52.678;13.250;2023-05-27T07:48:49;16.10;1.00
7290;DHT22;63176;52.678;13.250;2023-05-27T07:51:15;16.20;1.00
7290;DHT22;63176;52.678;13.250;2023-05-27T07:53:41;16.20;1.00
7290;DHT22;63176;52.678;13.250;2023-05-27T07:56:06;16.20;1.00
7290;DHT22;63176;52.678;13.250;2023-05-27T07:58:32;16.20;1.00
7290;DHT22;63176;52.678;13.250;2023-05-27T08:00:58;16.30;1.00
7290;DHT22;63176;52.678;13.250;2023-05-27T08:03:24;16.30;1.00
7290;DHT22;63176;52.678;13.250;2023-05-27T08:05:50;16.40;1.00
7290;DHT22;63176;52.678;13.250;2023-05-27T08:08:15;16.40;1.00
7290;DHT22;63176;52.678;13.250;2023-05-27T08:10:41;16.50;1.00
7290;DHT22;63176;52.678;13.250;2023-05-27T08:13:06;16.50;1.00
7290;DHT22;63176;52.678;13.250;2023-05-27T08:15:32;16.60;1.00
7290;DHT22;63176;52.678;13.250;2023-05-27T08:17:58;16.60;1.00
7290;DHT22;63176;52.678;13.250;2023-05-27T08:20:23;16.70;1.00
7290;DHT22;63176;52.678;13.250;2023-05-27T08:22:49;16.70;1.00
7290;DHT22;63176;52.678;13.250;2023-05-27T08:25:15;16.80;1.00
7290;DHT22;63176;52.678;13.250;2023-05-27T08:30:16;16.80;1.00
7290;DHT22;63176;52.678;13.250;2023-05-27T08:32:42;16.90;1.00
7290;DHT22;63176;52.678;13.250;2023-05-27T08:35:08;16.90;1.00
7290;DHT22;63176;52.678;13.250;2023-05-27T08:37:34;17.00;1.00
7290;DHT22;63176;52.678;13.250;2023-05-27T08:40:00;17.10;1.00
7290;DHT22;63176;52.678;13.250;2023-05-27T08:42:26;17.10;1.00
7290;DHT22;63176;52.678;13.250;2023-05-27T08:44:52;17.20;1.00
7290;DHT22;63176;52.678;13.250;2023-05-27T08:47:17;17.20;1.00
7290;DHT22;63176;52.678;13.250;2023-05-27T08:49:44;17.20;1.00
7290;DHT22;63176;52.678;13.250;2023-05-27T08:52:10;17.20;1.00
7290;DHT22;63176;52.678;13.250;2023-05-27T08:54:36;17.30;1.00
7290;DHT22;63176;52.678;13.250;2023-05-27T08:57:06;17.30;1.00
7290;DHT22;63176;52.678;13.250;2023-05-27T08:59:35;17.40;1.00
7290;DHT22;63176;52.678;13.250;2023-05-27T09:02:02;17.50;1.00
7290;DHT22;63176;52.678;13.250;2023-05-27T09:04:30;17.60;1.00
7290;DHT22;63176;52.678;13.250;2023-05-27T09:06:56;17.70;1.00
7290;DHT22;63176;52.678;13.250;2023-05-27T09:09:21;17.80;1.00
7290;DHT22;63176;52.678;13.250;2023-05-27T09:11:47;17.90;1.00
7290;DHT22;63176;52.678;13.250;2023-05-27T09:14:22;18.00;1.00
7290;DHT22;63176;52.678;13.250;2023-05-27T09:16:48;18.00;1.00
7290;DHT22;63176;52.678;13.250;2023-05-27T09:19:19;18.10;1.00
7290;DHT22;63176;52.678;13.250;2023-05-27T09:21:45;18.20;1.00
7290;DHT22;63176;52.678;13.250;2023-05-27T09:24:11;18.30;1.00
7290;DHT22;63176;52.678;13.250;2023-05-27T09:26:37;18.30;1.00
7290;DHT22;63176;52.678;13.250;2023-05-27T09:29:09;18.40;1.00
7290;DHT22;63176;52.678;13.250;2023-05-27T09:31:41;18.50;1.00
7290;DHT22;63176;52.678;13.250;2023-05-27T09:34:14;18.50;1.00
7290;DHT22;63176;52.678;13.250;2023-05-27T09:36:44;18.60;1.00
7290;DHT22;63176;52.678;13.250;2023-05-27T09:39:11;18.70;1.00
7290;DHT22;63176;52.678;13.250;2023-05-27T09:41:38;18.80;1.00
7290;DHT22;63176;52.678;13.250;2023-05-27T09:44:07;18.90;1.00
7290;DHT22;63176;52.678;13.250;2023-05-27T09:46:34;19.00;1.00
7290;DHT22;63176;52.678;13.250;2023-05-27T09:49:00;19.00;1.00
7290;DHT22;63176;52.678;13.250;2023-05-27T09:51:26;19.10;1.00
7290;DHT22;63176;52.678;13.250;2023-05-27T09:53:55;19.10;1.00
7290;DHT22;63176;52.678;13.250;2023-05-27T09:56:27;19.20;1.00
7290;DHT22;63176;52.678;13.250;2023-05-27T09:58:57;19.30;1.00
7290;DHT22;63176;52.678;13.250;2023-05-27T10:01:27;19.40;1.00
7290;DHT22;63176;52.678;13.250;2023-05-27T10:03:56;19.40;1.00
7290;DHT22;63176;52.678;13.250;2023-05-27T10:06:22;19.60;1.00
7290;DHT22;63176;52.678;13.250;2023-05-27T10:08:50;19.60;1.00
7290;DHT22;63176;52.678;13.250;2023-05-27T10:11:18;19.70;1.00
7290;DHT22;63176;52.678;13.250;2023-05-27T10:13:44;19.70;1.00
7290;DHT22;63176;52.678;13.250;2023-05-27T10:16:22;19.80;1.00
7290;DHT22;63176;52.678;13.250;2023-05-27T10:18:52;19.90;1.00
7290;DHT22;63176;52.678;13.250;2023-05-27T10:21:19;20.00;1.00
7290;DHT22;63176;52.678;13.250;2023-05-27T10:24:09;20.10;1.00
7290;DHT22;63176;52.678;13.250;2023-05-27T10:26:44;20.30;1.00
7290;DHT22;63176;52.678;13.250;2023-05-27T10:29:11;20.40;1.00
7290;DHT22;63176;52.678;13.250;2023-05-27T10:31:47;20.40;1.00
7290;DHT22;63176;52.678;13.250;2023-05-27T10:34:13;20.40;1.00
7290;DHT22;63176;52.678;13.250;2023-05-27T10:36:39;20.50;1.00
7290;DHT22;63176;52.678;13.250;2023-05-27T10:39:39;20.70;1.00
7290;DHT22;63176;52.678;13.250;2023-05-27T10:41:57;20.80;1.00
7290;DHT22;63176;52.678;13.250;2023-05-27T10:44:34;20.90;1.00
7290;DHT22;63176;52.678;13.250;2023-05-27T10:47:01;21.10;1.00
7290;DHT22;63176;52.678;13.250;2023-05-27T10:49:27;21.10;1.00
7290;DHT22;63176;52.678;13.250;2023-05-27T10:52:10;21.20;1.00
7290;DHT22;63176;52.678;13.250;2023-05-27T10:54:46;21.30;1.00
7290;DHT22;63176;52.678;13.250;2023-05-27T10:57:12;21.40;1.00
7290;DHT22;63176;52.678;13.250;2023-05-27T11:02:12;21.70;1.00
7290;DHT22;63176;52.678;13.250;2023-05-27T11:04:38;21.70;1.00
7290;DHT22;63176;52.678;13.250;2023-05-27T11:07:04;21.80;1.00
7290;DHT22;63176;52.678;13.250;2023-05-27T11:12:08;22.00;1.00
7290;DHT22;63176;52.678;13.250;2023-05-27T11:14:33;22.10;1.00
7290;DHT22;63176;52.678;13.250;2023-05-27T11:16:59;22.10;1.00
7290;DHT22;63176;52.678;13.250;2023-05-27T11:19:24;22.20;1.00
7290;DHT22;63176;52.678;13.250;2023-05-27T11:21:51;22.30;1.00
7290;DHT22;63176;52.678;13.250;2023-05-27T11:24:18;22.30;1.00
7290;DHT22;63176;52.678;13.250;2023-05-27T11:26:44;22.50;1.00
7290;DHT22;63176;52.678;13.250;2023-05-27T11:29:12;22.60;1.00
7290;DHT22;63176;52.678;13.250;2023-05-27T11:31:38;22.70;1.00
7290;DHT22;63176;52.678;13.250;2023-05-27T11:34:11;22.80;1.00
7290;DHT22;63176;52.678;13.250;2023-05-27T11:36:38;22.90;1.00
7290;DHT22;63176;52.678;13.250;2023-05-27T11:39:04;23.00;1.00
7290;DHT22;63176;52.678;13.250;2023-05-27T11:41:30;23.00;1.00
7290;DHT22;63176;52.678;13.250;2023-05-27T11:44:00;23.10;1.00
7290;DHT22;63176;52.678;13.250;2023-05-27T11:46:40;23.10;1.00
7290;DHT22;63176;52.678;13.250;2023-05-27T11:49:08;23.20;1.00
7290;DHT22;63176;52.678;13.250;2023-05-27T11:51:48;23.10;1.00
7290;DHT22;63176;52.678;13.250;2023-05-27T11:54:28;23.30;1.00
7290;DHT22;63176;52.678;13.250;2023-05-27T11:56:55;23.40;1.00
7290;DHT22;63176;52.678;13.250;2023-05-27T11:59:22;23.50;1.00
7290;DHT22;63176;52.678;13.250;2023-05-27T12:01:48;23.40;1.00
7290;DHT22;63176;52.678;13.250;2023-05-27T12:04:14;23.30;1.00
7290;DHT22;63176;52.678;13.250;2023-05-27T12:06:42;23.30;1.00
7290;DHT22;63176;52.678;13.250;2023-05-27T12:09:08;23.40;1.00
7290;DHT22;63176;52.678;13.250;2023-05-27T12:11:35;23.50;1.00
7290;DHT22;63176;52.678;13.250;2023-05-27T12:14:01;23.50;1.00
7290;DHT22;63176;52.678;13.250;2023-05-27T12:16:27;23.60;1.00
7290;DHT22;63176;52.678;13.250;2023-05-27T12:18:52;23.60;1.00
7290;DHT22;63176;52.678;13.250;2023-05-27T12:21:18;23.60;1.00
7290;DHT22;63176;52.678;13.250;2023-05-27T12:23:45;23.80;1.00
7290;DHT22;63176;52.678;13.250;2023-05-27T12:26:12;23.80;1.00
7290;DHT22;63176;52.678;13.250;2023-05-27T12:28:38;23.90;1.00
7290;DHT22;63176;52.678;13.250;2023-05-27T12:31:04;23.90;1.00
7290;DHT22;63176;52.678;13.250;2023-05-27T12:33:30;24.00;1.00
7290;DHT22;63176;52.678;13.250;2023-05-27T12:35:57;24.10;1.00
7290;DHT22;63176;52.678;13.250;2023-05-27T12:38:22;24.20;1.00
7290;DHT22;63176;52.678;13.250;2023-05-27T12:40:48;24.20;1.00
7290;DHT22;63176;52.678;13.250;2023-05-27T12:43:14;24.30;1.00
7290;DHT22;63176;52.678;13.250;2023-05-27T12:45:40;24.30;1.00
7290;DHT22;63176;52.678;13.250;2023-05-27T12:48:06;24.30;1.00
7290;DHT22;63176;52.678;13.250;2023-05-27T12:50:32;24.30;1.00
7290;DHT22;63176;52.678;13.250;2023-05-27T12:52:58;24.30;1.00
7290;DHT22;63176;52.678;13.250;2023-05-27T12:55:25;24.30;1.00
7290;DHT22;63176;52.678;13.250;2023-05-27T12:57:52;24.40;1.00
7290;DHT22;63176;52.678;13.250;2023-05-27T13:00:19;24.40;1.00
7290;DHT22;63176;52.678;13.250;2023-05-27T13:02:45;24.40;1.00
7290;DHT22;63176;52.678;13.250;2023-05-27T13:05:15;24.50;1.00
7290;DHT22;63176;52.678;13.250;2023-05-27T13:08:02;24.50;1.00
7290;DHT22;63176;52.678;13.250;2023-05-27T13:10:28;24.60;1.00
7290;DHT22;63176;52.678;13.250;2023-05-27T13:12:55;24.70;1.00
7290;DHT22;63176;52.678;13.250;2023-05-27T13:15:21;24.70;1.00
7290;DHT22;63176;52.678;13.250;2023-05-27T13:17:48;24.70;1.00
7290;DHT22;63176;52.678;13.250;2023-05-27T13:20:15;24.70;1.00
7290;DHT22;63176;52.678;13.250;2023-05-27T13:22:42;24.80;1.00
7290;DHT22;63176;52.678;13.250;2023-05-27T13:25:09;24.70;1.00
7290;DHT22;63176;52.678;13.250;2023-05-27T13:27:35;24.70;1.00
7290;DHT22;63176;52.678;13.250;2023-05-27T13:30:00;24.70;1.00
7290;DHT22;63176;52.678;13.250;2023-05-27T13:32:26;24.70;1.00
7290;DHT22;63176;52.678;13.250;2023-05-27T13:34:52;24.70;1.00
7290;DHT22;63176;52.678;13.250;2023-05-27T13:37:17;24.70;1.00
7290;DHT22;63176;52.678;13.250;2023-05-27T13:39:43;24.70;1.00
7290;DHT22;63176;52.678;13.250;2023-05-27T13:42:09;24.70;1.00
7290;DHT22;63176;52.678;13.250;2023-05-27T13:44:35;24.70;1.00
7290;DHT22;63176;52.678;13.250;2023-05-27T13:47:01;24.70;1.00
7290;DHT22;63176;52.678;13.250;2023-05-27T13:49:27;24.60;1.00
7290;DHT22;63176;52.678;13.250;2023-05-27T13:51:53;24.60;1.00
7290;DHT22;63176;52.678;13.250;2023-05-27T13:54:18;24.60;1.00
7290;DHT22;63176;52.678;13.250;2023-05-27T13:56:44;24.70;1.00
7290;DHT22;63176;52.678;13.250;2023-05-27T13:59:11;24.80;1.00
7290;DHT22;63176;52.678;13.250;2023-05-27T14:01:38;24.90;1.00
7290;DHT22;63176;52.678;13.250;2023-05-27T14:04:04;24.90;1.00
7290;DHT22;63176;52.678;13.250;2023-05-27T14:06:30;25.00;1.00
7290;DHT22;63176;52.678;13.250;2023-05-27T14:08:56;25.20;1.00
7290;DHT22;63176;52.678;13.250;2023-05-27T14:11:22;25.20;1.00
7290;DHT22;63176;52.678;13.250;2023-05-27T14:13:48;25.30;1.00
7290;DHT22;63176;52.678;13.250;2023-05-27T14:16:14;25.40;1.00
7290;DHT22;63176;52.678;13.250;2023-05-27T14:18:40;25.50;1.00
7290;DHT22;63176;52.678;13.250;2023-05-27T14:21:06;25.50;1.00
7290;DHT22;63176;52.678;13.250;2023-05-27T14:23:32;25.60;1.00
7290;DHT22;63176;52.678;13.250;2023-05-27T14:25:58;25.70;1.00
7290;DHT22;63176;52.678;13.250;2023-05-27T14:28:24;25.80;1.00
7290;DHT22;63176;52.678;13.250;2023-05-27T14:30:50;25.80;1.00
7290;DHT22;63176;52.678;13.250;2023-05-27T14:33:15;25.80;1.00
7290;DHT22;63176;52.678;13.250;2023-05-27T14:35:41;25.80;1.00
7290;DHT22;63176;52.678;13.250;2023-05-27T14:38:07;25.90;1.00
7290;DHT22;63176;52.678;13.250;2023-05-27T14:40:33;26.00;1.00
7290;DHT22;63176;52.678;13.250;2023-05-27T14:42:59;26.10;1.00
7290;DHT22;63176;52.678;13.250;2023-05-27T14:45:25;26.30;1.00
7290;DHT22;63176;52.678;13.250;2023-05-27T14:47:50;26.40;1.00
7290;DHT22;63176;52.678;13.250;2023-05-27T14:50:17;26.60;1.00
7290;DHT22;63176;52.678;13.250;2023-05-27T14:52:43;26.60;1.00
7290;DHT22;63176;52.678;13.250;2023-05-27T14:55:09;26.90;1.00
7290;DHT22;63176;52.678;13.250;2023-05-27T14:57:35;27.30;1.00
7290;DHT22;63176;52.678;13.250;2023-05-27T15:00:02;27.70;1.00
7290;DHT22;63176;52.678;13.250;2023-05-27T15:02:28;28.10;1.00
7290;DHT22;63176;52.678;13.250;2023-05-27T15:04:54;28.40;1.00
7290;DHT22;63176;52.678;13.250;2023-05-27T15:07:19;28.80;1.00
7290;DHT22;63176;52.678;13.250;2023-05-27T15:09:48;29.30;1.00
7290;DHT22;63176;52.678;13.250;2023-05-27T15:12:14;29.40;1.00
7290;DHT22;63176;52.678;13.250;2023-05-27T15:14:39;29.70;1.00
7290;DHT22;63176;52.678;13.250;2023-05-27T15:17:05;30.20;1.00
7290;DHT22;63176;52.678;13.250;2023-05-27T15:19:31;30.70;1.00
7290;DHT22;63176;52.678;13.250;2023-05-27T15:21:56;30.70;1.00
7290;DHT22;63176;52.678;13.250;2023-05-27T15:24:22;30.90;1.00
7290;DHT22;63176;52.678;13.250;2023-05-27T15:26:48;30.60;1.00
7290;DHT22;63176;52.678;13.250;2023-05-27T15:29:13;30.40;1.00
7290;DHT22;63176;52.678;13.250;2023-05-27T15:31:39;30.10;1.00
7290;DHT22;63176;52.678;13.250;2023-05-27T15:34:04;29.40;1.00
7290;DHT22;63176;52.678;13.250;2023-05-27T15:36:30;28.70;1.00
7290;DHT22;63176;52.678;13.250;2023-05-27T15:38:57;27.80;1.00
7290;DHT22;63176;52.678;13.250;2023-05-27T15:41:23;27.30;1.00
7290;DHT22;63176;52.678;13.250;2023-05-27T15:43:48;26.80;1.00
7290;DHT22;63176;52.678;13.250;2023-05-27T15:46:14;26.30;1.00
7290;DHT22;63176;52.678;13.250;2023-05-27T15:48:41;26.00;1.00
7290;DHT22;63176;52.678;13.250;2023-05-27T15:51:06;25.80;1.00
7290;DHT22;63176;52.678;13.250;2023-05-27T15:53:33;25.50;1.00
7290;DHT22;63176;52.678;13.250;2023-05-27T15:55:58;25.30;1.00
7290;DHT22;63176;52.678;13.250;2023-05-27T15:58:24;25.20;1.00
7290;DHT22;63176;52.678;13.250;2023-05-27T16:00:50;25.10;1.00